메인 페이지
METAR-TAF:

METAR-TAF

공항 :

Phillip Goldston

벨리즈시티, 벨리즈

위도: 17-32N, 경도: 088-18W, 고도: 5m

현재 날씨관측

예보는 1 시간 3분 전, 01:00시(UTC)에 발표되었습니다.
동북동6kt
온도 27°C
습도 89%
기압 1012 hPa
시정 10km 이상
고도 1200ft 상공 구름 조금, 적란운.
고도 4000ft 상공 구름 보통
뇌우, 비

METAR: MZBZ 250100Z 06006KT 9999 TSRA FEW012CB SCT040 27/25 A2990 Q1012 NOSIG RMK CB-NE DIST SHWRS-SW CB TOP-SW LTNG-SW

시각: 20:03 (02:03 UTC)

예보

예보는 5 시간 3분 전, 21:00시(UTC)에 발표되었습니다.
예보 대상 시간: 25일 00시부터 25일 24시까지 (UTC)
7kt
시정 10km 이상
고도 2200ft 상공 구름 보통
고도 4500ft 상공 구름 보통
확률 40% :
일시적
25일 06시부터 25일 15시까지 (UTC)
시정: 5000m
고도 1500ft 상공 구름 많음
소나기

TAF: MZBZ 242100Z 2500/2524 09007KT 9999 SCT022 SCT045 PROB40 TEMPO 2506/2515 5000 SHRA BKN015

4,000개 이상의 공항 관측 자료 및 예보 (METAR 및 TAF 보고).

지도상에서 검색 가능한 기상관측소가 노란 점과 빨간 점으로 표시되어 있습니다.

기상관측소 명을 보려면 표시 위로 마우스를 이동하세요.

날씨 관측과 예보를 보려면 클릭하세요.

지도 변경 : 확대하려면 엑스 표시가 있는 녹색 버튼, 축소하려면 빼기 표시가 있는 녹색 버튼, 다음 페이지의 지도를 보려면 녹색 화살표를 클릭하세요.


METAR-TAF: